sensor_id;sensor_type;location;lat;lon;timestamp;temperature;humidity
5196;DHT22;2617;51.006;12.436;2023-03-23T00:02:45;12.70;97.60
5196;DHT22;2617;51.006;12.436;2023-03-23T00:07:47;12.60;97.70
5196;DHT22;2617;51.006;12.436;2023-03-23T00:12:49;12.60;97.90
5196;DHT22;2617;51.006;12.436;2023-03-23T00:17:52;12.50;98.00
5196;DHT22;2617;51.006;12.436;2023-03-23T00:22:55;12.50;97.80
5196;DHT22;2617;51.006;12.436;2023-03-23T00:27:57;12.40;97.40
5196;DHT22;2617;51.006;12.436;2023-03-23T00:32:59;12.50;97.20
5196;DHT22;2617;51.006;12.436;2023-03-23T00:38:02;12.50;97.40
5196;DHT22;2617;51.006;12.436;2023-03-23T00:43:04;12.40;97.60
5196;DHT22;2617;51.006;12.436;2023-03-23T00:48:06;12.30;97.60
5196;DHT22;2617;51.006;12.436;2023-03-23T00:53:10;12.30;97.80
5196;DHT22;2617;51.006;12.436;2023-03-23T00:58:12;12.30;97.80
5196;DHT22;2617;51.006;12.436;2023-03-23T01:03:15;12.20;97.90
5196;DHT22;2617;51.006;12.436;2023-03-23T01:08:18;12.20;97.90
5196;DHT22;2617;51.006;12.436;2023-03-23T01:13:20;12.20;98.10
5196;DHT22;2617;51.006;12.436;2023-03-23T01:18:23;12.10;98.00
5196;DHT22;2617;51.006;12.436;2023-03-23T01:23:25;12.20;98.10
5196;DHT22;2617;51.006;12.436;2023-03-23T01:28:27;12.20;98.30
5196;DHT22;2617;51.006;12.436;2023-03-23T01:33:30;12.10;98.40
5196;DHT22;2617;51.006;12.436;2023-03-23T01:38:34;12.00;98.90
5196;DHT22;2617;51.006;12.436;2023-03-23T01:43:36;12.00;98.90
5196;DHT22;2617;51.006;12.436;2023-03-23T01:48:39;12.00;99.50
5196;DHT22;2617;51.006;12.436;2023-03-23T01:53:44;11.90;99.50
5196;DHT22;2617;51.006;12.436;2023-03-23T01:58:47;11.90;99.70
5196;DHT22;2617;51.006;12.436;2023-03-23T02:03:51;11.90;99.80
5196;DHT22;2617;51.006;12.436;2023-03-23T02:08:53;11.80;99.80
5196;DHT22;2617;51.006;12.436;2023-03-23T02:13:55;11.90;99.70
5196;DHT22;2617;51.006;12.436;2023-03-23T02:24:57;11.90;99.20
5196;DHT22;2617;51.006;12.436;2023-03-23T02:30:08;11.90;99.10
5196;DHT22;2617;51.006;12.436;2023-03-23T02:35:20;11.90;98.90
5196;DHT22;2617;51.006;12.436;2023-03-23T02:40:25;11.90;98.60
5196;DHT22;2617;51.006;12.436;2023-03-23T02:45:28;11.90;98.40
5196;DHT22;2617;51.006;12.436;2023-03-23T02:50:30;11.90;98.50
5196;DHT22;2617;51.006;12.436;2023-03-23T02:55:33;11.90;98.50
5196;DHT22;2617;51.006;12.436;2023-03-23T03:00:36;11.80;98.90
5196;DHT22;2617;51.006;12.436;2023-03-23T03:11:07;11.70;99.10
5196;DHT22;2617;51.006;12.436;2023-03-23T03:21:35;11.70;99.80
5196;DHT22;2617;51.006;12.436;2023-03-23T03:26:39;11.70;99.90
5196;DHT22;2617;51.006;12.436;2023-03-23T03:31:40;11.70;99.90
5196;DHT22;2617;51.006;12.436;2023-03-23T03:36:44;11.80;99.90
5196;DHT22;2617;51.006;12.436;2023-03-23T03:41:47;11.80;99.90
5196;DHT22;2617;51.006;12.436;2023-03-23T03:46:49;11.90;99.90
5196;DHT22;2617;51.006;12.436;2023-03-23T03:51:52;11.90;99.90
5196;DHT22;2617;51.006;12.436;2023-03-23T03:56:54;12.00;99.90
5196;DHT22;2617;51.006;12.436;2023-03-23T04:01:58;12.10;99.90
5196;DHT22;2617;51.006;12.436;2023-03-23T04:07:00;12.10;99.90
5196;DHT22;2617;51.006;12.436;2023-03-23T04:12:04;12.10;99.90
5196;DHT22;2617;51.006;12.436;2023-03-23T04:17:06;12.00;99.90
5196;DHT22;2617;51.006;12.436;2023-03-23T04:22:09;12.00;99.90
5196;DHT22;2617;51.006;12.436;2023-03-23T04:27:11;12.00;99.90
5196;DHT22;2617;51.006;12.436;2023-03-23T04:32:13;12.00;99.90
5196;DHT22;2617;51.006;12.436;2023-03-23T04:37:16;12.00;99.90
5196;DHT22;2617;51.006;12.436;2023-03-23T04:42:18;12.00;99.90
5196;DHT22;2617;51.006;12.436;2023-03-23T04:47:21;12.00;99.90
5196;DHT22;2617;51.006;12.436;2023-03-23T04:52:24;12.00;99.90
5196;DHT22;2617;51.006;12.436;2023-03-23T04:57:26;12.10;99.90
5196;DHT22;2617;51.006;12.436;2023-03-23T05:02:29;12.10;99.90
5196;DHT22;2617;51.006;12.436;2023-03-23T05:07:32;12.00;99.90
5196;DHT22;2617;51.006;12.436;2023-03-23T05:12:35;12.00;99.90
5196;DHT22;2617;51.006;12.436;2023-03-23T05:17:37;12.00;99.90
5196;DHT22;2617;51.006;12.436;2023-03-23T05:22:41;11.90;99.90
5196;DHT22;2617;51.006;12.436;2023-03-23T05:27:43;12.00;99.90
5196;DHT22;2617;51.006;12.436;2023-03-23T05:32:45;11.90;99.90
5196;DHT22;2617;51.006;12.436;2023-03-23T05:37:48;12.00;99.90
5196;DHT22;2617;51.006;12.436;2023-03-23T05:42:51;12.10;99.90
5196;DHT22;2617;51.006;12.436;2023-03-23T05:47:54;12.20;99.90
5196;DHT22;2617;51.006;12.436;2023-03-23T05:52:56;12.20;99.90
5196;DHT22;2617;51.006;12.436;2023-03-23T05:58:00;12.20;99.90
5196;DHT22;2617;51.006;12.436;2023-03-23T06:03:02;12.20;99.90
5196;DHT22;2617;51.006;12.436;2023-03-23T06:08:05;12.30;99.90
5196;DHT22;2617;51.006;12.436;2023-03-23T06:13:08;12.30;99.90
5196;DHT22;2617;51.006;12.436;2023-03-23T06:18:10;12.40;99.90
5196;DHT22;2617;51.006;12.436;2023-03-23T06:23:13;12.30;99.90
5196;DHT22;2617;51.006;12.436;2023-03-23T06:28:16;12.30;99.90
5196;DHT22;2617;51.006;12.436;2023-03-23T06:33:18;12.40;99.90
5196;DHT22;2617;51.006;12.436;2023-03-23T06:38:20;12.40;99.90
5196;DHT22;2617;51.006;12.436;2023-03-23T06:43:23;12.50;99.90
5196;DHT22;2617;51.006;12.436;2023-03-23T06:48:25;12.50;99.90
5196;DHT22;2617;51.006;12.436;2023-03-23T06:53:28;12.50;99.90
5196;DHT22;2617;51.006;12.436;2023-03-23T06:58:31;12.50;99.90
5196;DHT22;2617;51.006;12.436;2023-03-23T07:03:33;12.50;99.90
5196;DHT22;2617;51.006;12.436;2023-03-23T07:08:37;12.50;99.90
5196;DHT22;2617;51.006;12.436;2023-03-23T07:13:39;12.50;99.90
5196;DHT22;2617;51.006;12.436;2023-03-23T07:18:41;12.50;99.90
5196;DHT22;2617;51.006;12.436;2023-03-23T07:23:44;12.50;99.90
5196;DHT22;2617;51.006;12.436;2023-03-23T07:28:47;12.60;99.90
5196;DHT22;2617;51.006;12.436;2023-03-23T07:33:50;12.70;99.90
5196;DHT22;2617;51.006;12.436;2023-03-23T07:38:53;12.80;99.90
5196;DHT22;2617;51.006;12.436;2023-03-23T07:43:56;12.80;99.90
5196;DHT22;2617;51.006;12.436;2023-03-23T07:48:58;12.70;99.90
5196;DHT22;2617;51.006;12.436;2023-03-23T07:54:05;12.80;99.90
5196;DHT22;2617;51.006;12.436;2023-03-23T07:59:07;12.70;99.90
5196;DHT22;2617;51.006;12.436;2023-03-23T08:04:10;12.80;99.90
5196;DHT22;2617;51.006;12.436;2023-03-23T08:09:12;12.80;99.90
5196;DHT22;2617;51.006;12.436;2023-03-23T08:14:15;12.80;99.90
5196;DHT22;2617;51.006;12.436;2023-03-23T08:19:17;12.90;99.90
5196;DHT22;2617;51.006;12.436;2023-03-23T08:24:20;12.90;99.90
5196;DHT22;2617;51.006;12.436;2023-03-23T08:29:22;12.90;99.90
5196;DHT22;2617;51.006;12.436;2023-03-23T08:34:24;12.90;99.90
5196;DHT22;2617;51.006;12.436;2023-03-23T08:39:27;13.00;99.90
5196;DHT22;2617;51.006;12.436;2023-03-23T08:44:29;13.10;99.90
5196;DHT22;2617;51.006;12.436;2023-03-23T08:49:32;13.20;99.90
5196;DHT22;2617;51.006;12.436;2023-03-23T08:54:35;13.40;99.90
5196;DHT22;2617;51.006;12.436;2023-03-23T08:59:37;13.60;99.90
5196;DHT22;2617;51.006;12.436;2023-03-23T09:04:40;13.80;99.90
5196;DHT22;2617;51.006;12.436;2023-03-23T09:09:43;14.10;99.90
5196;DHT22;2617;51.006;12.436;2023-03-23T09:15:56;14.50;99.90
5196;DHT22;2617;51.006;12.436;2023-03-23T09:20:59;14.50;99.90
5196;DHT22;2617;51.006;12.436;2023-03-23T09:27:37;14.50;99.90
5196;DHT22;2617;51.006;12.436;2023-03-23T09:36:50;14.70;99.90
5196;DHT22;2617;51.006;12.436;2023-03-23T09:42:13;14.80;99.90
5196;DHT22;2617;51.006;12.436;2023-03-23T09:52:58;14.60;99.90
5196;DHT22;2617;51.006;12.436;2023-03-23T09:58:18;14.60;99.90
5196;DHT22;2617;51.006;12.436;2023-03-23T10:03:37;14.60;99.90
5196;DHT22;2617;51.006;12.436;2023-03-23T10:08:42;14.60;99.90
5196;DHT22;2617;51.006;12.436;2023-03-23T10:19:14;14.60;99.90
5196;DHT22;2617;51.006;12.436;2023-03-23T10:24:15;14.60;99.90
5196;DHT22;2617;51.006;12.436;2023-03-23T10:29:26;14.60;99.90
5196;DHT22;2617;51.006;12.436;2023-03-23T10:34:47;14.70;99.90
5196;DHT22;2617;51.006;12.436;2023-03-23T10:39:52;14.70;99.90
5196;DHT22;2617;51.006;12.436;2023-03-23T10:44:58;14.70;99.90
5196;DHT22;2617;51.006;12.436;2023-03-23T10:50:00;14.70;99.90
5196;DHT22;2617;51.006;12.436;2023-03-23T10:55:05;14.70;99.90
5196;DHT22;2617;51.006;12.436;2023-03-23T11:00:23;14.70;99.90
5196;DHT22;2617;51.006;12.436;2023-03-23T11:05:32;14.70;99.90
5196;DHT22;2617;51.006;12.436;2023-03-23T11:10:37;14.70;99.90
5196;DHT22;2617;51.006;12.436;2023-03-23T11:15:39;14.70;99.90
5196;DHT22;2617;51.006;12.436;2023-03-23T11:20:41;14.90;99.90
5196;DHT22;2617;51.006;12.436;2023-03-23T11:25:53;15.10;99.90
5196;DHT22;2617;51.006;12.436;2023-03-23T11:30:55;15.10;99.90
5196;DHT22;2617;51.006;12.436;2023-03-23T11:35:57;15.10;99.90
5196;DHT22;2617;51.006;12.436;2023-03-23T11:41:00;15.10;99.90
5196;DHT22;2617;51.006;12.436;2023-03-23T11:46:10;15.10;99.90
5196;DHT22;2617;51.006;12.436;2023-03-23T11:51:24;15.20;99.90
5196;DHT22;2617;51.006;12.436;2023-03-23T11:56:35;15.10;99.90
5196;DHT22;2617;51.006;12.436;2023-03-23T12:01:51;15.00;99.90
5196;DHT22;2617;51.006;12.436;2023-03-23T12:17:40;15.00;99.90
5196;DHT22;2617;51.006;12.436;2023-03-23T12:28:07;14.90;99.90
5196;DHT22;2617;51.006;12.436;2023-03-23T12:33:25;14.80;99.90
5196;DHT22;2617;51.006;12.436;2023-03-23T12:38:33;14.70;99.90
5196;DHT22;2617;51.006;12.436;2023-03-23T12:43:52;14.80;99.90
5196;DHT22;2617;51.006;12.436;2023-03-23T12:49:06;15.00;99.90
5196;DHT22;2617;51.006;12.436;2023-03-23T12:54:32;15.20;99.90
5196;DHT22;2617;51.006;12.436;2023-03-23T12:59:40;15.30;99.90
5196;DHT22;2617;51.006;12.436;2023-03-23T13:04:44;15.50;99.90
5196;DHT22;2617;51.006;12.436;2023-03-23T13:10:04;16.00;98.70
5196;DHT22;2617;51.006;12.436;2023-03-23T13:15:27;16.00;98.70
5196;DHT22;2617;51.006;12.436;2023-03-23T13:20:52;16.30;99.10
5196;DHT22;2617;51.006;12.436;2023-03-23T13:26:02;16.70;97.10
5196;DHT22;2617;51.006;12.436;2023-03-23T13:31:10;16.90;95.80
5196;DHT22;2617;51.006;12.436;2023-03-23T13:36:13;17.50;95.70
5196;DHT22;2617;51.006;12.436;2023-03-23T13:41:16;17.70;93.70
5196;DHT22;2617;51.006;12.436;2023-03-23T13:46:28;17.30;93.60
5196;DHT22;2617;51.006;12.436;2023-03-23T13:51:34;16.80;93.90
5196;DHT22;2617;51.006;12.436;2023-03-23T13:56:40;16.40;94.60
5196;DHT22;2617;51.006;12.436;2023-03-23T14:01:42;16.30;95.20
5196;DHT22;2617;51.006;12.436;2023-03-23T14:06:45;16.10;96.30
5196;DHT22;2617;51.006;12.436;2023-03-23T14:11:49;15.90;96.40
5196;DHT22;2617;51.006;12.436;2023-03-23T14:16:51;15.90;97.20
5196;DHT22;2617;51.006;12.436;2023-03-23T14:21:54;15.90;97.20
5196;DHT22;2617;51.006;12.436;2023-03-23T14:27:14;15.90;97.50
5196;DHT22;2617;51.006;12.436;2023-03-23T14:32:17;15.90;97.50
5196;DHT22;2617;51.006;12.436;2023-03-23T14:37:18;15.70;98.10
5196;DHT22;2617;51.006;12.436;2023-03-23T14:42:30;15.40;98.00
5196;DHT22;2617;51.006;12.436;2023-03-23T14:47:35;15.40;98.10
5196;DHT22;2617;51.006;12.436;2023-03-23T14:52:36;15.50;97.80
5196;DHT22;2617;51.006;12.436;2023-03-23T14:57:41;15.60;96.90
5196;DHT22;2617;51.006;12.436;2023-03-23T15:02:44;15.70;96.90
5196;DHT22;2617;51.006;12.436;2023-03-23T15:07:47;15.70;97.20
5196;DHT22;2617;51.006;12.436;2023-03-23T15:12:49;15.50;97.40
5196;DHT22;2617;51.006;12.436;2023-03-23T15:17:52;15.20;98.40
5196;DHT22;2617;51.006;12.436;2023-03-23T15:22:55;15.00;99.90
5196;DHT22;2617;51.006;12.436;2023-03-23T15:28:06;15.00;99.90
5196;DHT22;2617;51.006;12.436;2023-03-23T15:33:09;14.90;99.90
5196;DHT22;2617;51.006;12.436;2023-03-23T15:38:24;14.80;99.90
5196;DHT22;2617;51.006;12.436;2023-03-23T15:43:34;14.50;99.90
5196;DHT22;2617;51.006;12.436;2023-03-23T15:48:46;14.40;99.90
5196;DHT22;2617;51.006;12.436;2023-03-23T15:53:51;14.40;99.90
5196;DHT22;2617;51.006;12.436;2023-03-23T15:58:54;14.40;99.90
5196;DHT22;2617;51.006;12.436;2023-03-23T16:03:57;14.40;99.90
5196;DHT22;2617;51.006;12.436;2023-03-23T16:09:00;14.40;99.90
5196;DHT22;2617;51.006;12.436;2023-03-23T16:14:03;14.40;99.90
5196;DHT22;2617;51.006;12.436;2023-03-23T16:19:07;14.50;99.90
5196;DHT22;2617;51.006;12.436;2023-03-23T16:24:10;14.40;99.90
5196;DHT22;2617;51.006;12.436;2023-03-23T16:29:13;14.40;99.90
5196;DHT22;2617;51.006;12.436;2023-03-23T16:34:15;14.30;99.90
5196;DHT22;2617;51.006;12.436;2023-03-23T16:39:18;14.20;99.90
5196;DHT22;2617;51.006;12.436;2023-03-23T16:44:24;14.00;99.90
5196;DHT22;2617;51.006;12.436;2023-03-23T16:49:27;13.90;99.90
5196;DHT22;2617;51.006;12.436;2023-03-23T16:54:29;13.70;99.90
5196;DHT22;2617;51.006;12.436;2023-03-23T16:59:32;13.50;99.90
5196;DHT22;2617;51.006;12.436;2023-03-23T17:04:34;13.40;99.90
5196;DHT22;2617;51.006;12.436;2023-03-23T17:09:36;13.20;99.90
5196;DHT22;2617;51.006;12.436;2023-03-23T17:14:39;13.10;99.90
5196;DHT22;2617;51.006;12.436;2023-03-23T17:19:42;12.80;99.90
5196;DHT22;2617;51.006;12.436;2023-03-23T17:24:45;12.70;99.90
5196;DHT22;2617;51.006;12.436;2023-03-23T17:29:48;12.70;99.90
5196;DHT22;2617;51.006;12.436;2023-03-23T17:34:50;12.60;99.90
5196;DHT22;2617;51.006;12.436;2023-03-23T17:39:53;12.60;99.90
5196;DHT22;2617;51.006;12.436;2023-03-23T17:44:55;12.50;99.90
5196;DHT22;2617;51.006;12.436;2023-03-23T17:49:57;12.40;99.90
5196;DHT22;2617;51.006;12.436;2023-03-23T17:55:00;12.30;99.90
5196;DHT22;2617;51.006;12.436;2023-03-23T18:00:03;12.20;99.90
5196;DHT22;2617;51.006;12.436;2023-03-23T18:05:06;11.90;99.90
5196;DHT22;2617;51.006;12.436;2023-03-23T18:10:10;11.90;99.90
5196;DHT22;2617;51.006;12.436;2023-03-23T18:15:12;11.80;99.90
5196;DHT22;2617;51.006;12.436;2023-03-23T18:20:15;11.70;99.90
5196;DHT22;2617;51.006;12.436;2023-03-23T18:25:18;11.60;99.90
5196;DHT22;2617;51.006;12.436;2023-03-23T18:30:21;11.50;99.90
5196;DHT22;2617;51.006;12.436;2023-03-23T18:35:24;11.40;99.90
5196;DHT22;2617;51.006;12.436;2023-03-23T18:40:26;11.40;99.90
5196;DHT22;2617;51.006;12.436;2023-03-23T18:45:31;11.30;99.90
5196;DHT22;2617;51.006;12.436;2023-03-23T18:50:33;11.20;99.90
5196;DHT22;2617;51.006;12.436;2023-03-23T18:55:35;11.20;99.90
5196;DHT22;2617;51.006;12.436;2023-03-23T19:00:39;11.10;99.90
5196;DHT22;2617;51.006;12.436;2023-03-23T19:05:42;11.10;99.90
5196;DHT22;2617;51.006;12.436;2023-03-23T19:10:44;11.10;99.90
5196;DHT22;2617;51.006;12.436;2023-03-23T19:15:48;11.10;99.90
5196;DHT22;2617;51.006;12.436;2023-03-23T19:20:50;11.00;99.90
5196;DHT22;2617;51.006;12.436;2023-03-23T19:25:54;11.00;99.90
5196;DHT22;2617;51.006;12.436;2023-03-23T19:30:56;11.00;99.90
5196;DHT22;2617;51.006;12.436;2023-03-23T19:35:59;11.00;99.90
5196;DHT22;2617;51.006;12.436;2023-03-23T19:41:02;11.00;99.90
5196;DHT22;2617;51.006;12.436;2023-03-23T19:46:04;11.00;99.90
5196;DHT22;2617;51.006;12.436;2023-03-23T19:51:07;11.00;99.90
5196;DHT22;2617;51.006;12.436;2023-03-23T19:56:12;11.10;99.90
5196;DHT22;2617;51.006;12.436;2023-03-23T20:01:15;11.10;99.90
5196;DHT22;2617;51.006;12.436;2023-03-23T20:06:19;11.20;99.90
5196;DHT22;2617;51.006;12.436;2023-03-23T20:11:22;11.20;99.90
5196;DHT22;2617;51.006;12.436;2023-03-23T20:16:24;11.30;99.90
5196;DHT22;2617;51.006;12.436;2023-03-23T20:21:27;11.40;99.90
5196;DHT22;2617;51.006;12.436;2023-03-23T20:26:31;11.50;99.90
5196;DHT22;2617;51.006;12.436;2023-03-23T20:31:33;11.60;99.90
5196;DHT22;2617;51.006;12.436;2023-03-23T20:36:37;11.70;99.90
5196;DHT22;2617;51.006;12.436;2023-03-23T20:41:38;11.80;99.90
5196;DHT22;2617;51.006;12.436;2023-03-23T20:46:44;11.80;99.90
5196;DHT22;2617;51.006;12.436;2023-03-23T20:51:46;11.80;99.90
5196;DHT22;2617;51.006;12.436;2023-03-23T20:56:49;11.80;99.90
5196;DHT22;2617;51.006;12.436;2023-03-23T21:01:51;11.70;99.90
5196;DHT22;2617;51.006;12.436;2023-03-23T21:06:53;11.60;99.90
5196;DHT22;2617;51.006;12.436;2023-03-23T21:11:56;11.50;99.90
5196;DHT22;2617;51.006;12.436;2023-03-23T21:16:59;11.40;99.90
5196;DHT22;2617;51.006;12.436;2023-03-23T21:22:02;11.40;99.90
5196;DHT22;2617;51.006;12.436;2023-03-23T21:27:04;11.40;99.90
5196;DHT22;2617;51.006;12.436;2023-03-23T21:32:07;11.40;99.90
5196;DHT22;2617;51.006;12.436;2023-03-23T21:37:10;11.20;99.90
5196;DHT22;2617;51.006;12.436;2023-03-23T21:42:12;11.20;99.90
5196;DHT22;2617;51.006;12.436;2023-03-23T21:47:15;11.20;99.90
5196;DHT22;2617;51.006;12.436;2023-03-23T21:52:17;11.10;99.90
5196;DHT22;2617;51.006;12.436;2023-03-23T21:57:20;11.10;99.90
5196;DHT22;2617;51.006;12.436;2023-03-23T22:02:22;11.10;99.90
5196;DHT22;2617;51.006;12.436;2023-03-23T22:07:25;11.10;99.90
5196;DHT22;2617;51.006;12.436;2023-03-23T22:12:27;11.00;99.90
5196;DHT22;2617;51.006;12.436;2023-03-23T22:17:30;11.00;99.90
5196;DHT22;2617;51.006;12.436;2023-03-23T22:22:33;10.90;99.90
5196;DHT22;2617;51.006;12.436;2023-03-23T22:27:36;10.90;99.90
5196;DHT22;2617;51.006;12.436;2023-03-23T22:32:38;11.00;99.90
5196;DHT22;2617;51.006;12.436;2023-03-23T22:37:40;11.00;99.90
5196;DHT22;2617;51.006;12.436;2023-03-23T22:42:44;11.00;99.90
5196;DHT22;2617;51.006;12.436;2023-03-23T22:47:47;11.20;99.90
5196;DHT22;2617;51.006;12.436;2023-03-23T22:52:49;11.20;99.90
5196;DHT22;2617;51.006;12.436;2023-03-23T22:57:52;11.30;99.90
5196;DHT22;2617;51.006;12.436;2023-03-23T23:02:56;11.30;99.90
5196;DHT22;2617;51.006;12.436;2023-03-23T23:07:59;11.40;99.90
5196;DHT22;2617;51.006;12.436;2023-03-23T23:13:02;11.40;99.90
5196;DHT22;2617;51.006;12.436;2023-03-23T23:18:05;11.40;99.90
5196;DHT22;2617;51.006;12.436;2023-03-23T23:23:07;11.40;99.90
5196;DHT22;2617;51.006;12.436;2023-03-23T23:28:10;11.40;99.90
5196;DHT22;2617;51.006;12.436;2023-03-23T23:33:12;11.40;99.90
5196;DHT22;2617;51.006;12.436;2023-03-23T23:38:16;11.40;99.90
5196;DHT22;2617;51.006;12.436;2023-03-23T23:43:19;11.40;99.90
5196;DHT22;2617;51.006;12.436;2023-03-23T23:48:21;11.40;99.90
5196;DHT22;2617;51.006;12.436;2023-03-23T23:53:24;11.40;99.90
5196;DHT22;2617;51.006;12.436;2023-03-23T23:58:26;11.40;99.90
